sensor_id;sensor_type;location;lat;lon;timestamp;pressure;altitude;pressure_sealevel;temperature;humidity
75604;BME280;64187;51.010;13.792;2024-01-30T00:00:10;101806.31;;;3.23;74.33
75604;BME280;64187;51.010;13.792;2024-01-30T00:05:09;101796.31;;;3.08;74.30
75604;BME280;64187;51.010;13.792;2024-01-30T00:10:08;101799.22;;;3.14;74.11
75604;BME280;64187;51.010;13.792;2024-01-30T00:15:08;101793.28;;;3.29;73.57
75604;BME280;64187;51.010;13.792;2024-01-30T00:20:08;101789.19;;;3.16;73.95
75604;BME280;64187;51.010;13.792;2024-01-30T00:25:08;101780.63;;;3.13;73.55
75604;BME280;64187;51.010;13.792;2024-01-30T00:30:08;101777.56;;;3.26;73.51
75604;BME280;64187;51.010;13.792;2024-01-30T00:35:07;101784.06;;;3.23;73.48
75604;BME280;64187;51.010;13.792;2024-01-30T00:40:09;101784.69;;;3.17;73.37
75604;BME280;64187;51.010;13.792;2024-01-30T00:45:15;101788.00;;;3.11;73.76
75604;BME280;64187;51.010;13.792;2024-01-30T00:50:14;101792.34;;;3.12;73.43
75604;BME280;64187;51.010;13.792;2024-01-30T00:55:13;101788.00;;;2.93;74.33
75604;BME280;64187;51.010;13.792;2024-01-30T01:00:13;101783.16;;;3.14;73.28
75604;BME280;64187;51.010;13.792;2024-01-30T01:05:15;101790.75;;;3.27;72.70
75604;BME280;64187;51.010;13.792;2024-01-30T01:10:15;101788.59;;;2.78;74.14
75604;BME280;64187;51.010;13.792;2024-01-30T01:15:15;101787.25;;;2.83;74.27
75604;BME280;64187;51.010;13.792;2024-01-30T01:20:14;101779.69;;;2.96;73.65
75604;BME280;64187;51.010;13.792;2024-01-30T01:25:13;101780.72;;;3.03;73.41
75604;BME280;64187;51.010;13.792;2024-01-30T01:30:12;101789.34;;;2.89;74.11
75604;BME280;64187;51.010;13.792;2024-01-30T01:35:17;101779.09;;;3.10;73.25
75604;BME280;64187;51.010;13.792;2024-01-30T01:40:16;101777.81;;;2.88;74.07
75604;BME280;64187;51.010;13.792;2024-01-30T01:45:15;101783.38;;;2.77;74.77
75604;BME280;64187;51.010;13.792;2024-01-30T01:50:15;101783.94;;;3.07;73.83
75604;BME280;64187;51.010;13.792;2024-01-30T01:55:20;101785.97;;;2.87;74.41
75604;BME280;64187;51.010;13.792;2024-01-30T02:00:24;101784.41;;;3.02;73.88
75604;BME280;64187;51.010;13.792;2024-01-30T02:05:23;101780.31;;;2.90;74.20
75604;BME280;64187;51.010;13.792;2024-01-30T02:10:23;101767.56;;;2.84;74.02
75604;BME280;64187;51.010;13.792;2024-01-30T02:15:22;101769.94;;;2.87;74.07
75604;BME280;64187;51.010;13.792;2024-01-30T02:20:23;101765.41;;;2.87;74.24
75604;BME280;64187;51.010;13.792;2024-01-30T02:25:33;101772.97;;;2.92;74.01
75604;BME280;64187;51.010;13.792;2024-01-30T02:30:32;101770.16;;;2.75;74.53
75604;BME280;64187;51.010;13.792;2024-01-30T02:35:31;101770.41;;;2.64;74.78
75604;BME280;64187;51.010;13.792;2024-01-30T02:40:31;101761.78;;;2.70;75.16
75604;BME280;64187;51.010;13.792;2024-01-30T02:45:30;101758.03;;;2.63;75.01
75604;BME280;64187;51.010;13.792;2024-01-30T02:50:29;101761.31;;;2.75;74.47
75604;BME280;64187;51.010;13.792;2024-01-30T02:55:28;101754.13;;;2.75;74.56
75604;BME280;64187;51.010;13.792;2024-01-30T03:00:26;101759.03;;;2.62;75.24
75604;BME280;64187;51.010;13.792;2024-01-30T03:05:25;101752.13;;;2.51;75.73
75604;BME280;64187;51.010;13.792;2024-01-30T03:10:24;101752.84;;;2.62;75.44
75604;BME280;64187;51.010;13.792;2024-01-30T03:15:23;101758.66;;;2.57;75.66
75604;BME280;64187;51.010;13.792;2024-01-30T03:20:22;101750.34;;;2.60;75.38
75604;BME280;64187;51.010;13.792;2024-01-30T03:25:21;101753.16;;;2.76;74.61
75604;BME280;64187;51.010;13.792;2024-01-30T03:30:20;101746.22;;;2.48;74.99
75604;BME280;64187;51.010;13.792;2024-01-30T03:35:19;101749.41;;;2.69;74.79
75604;BME280;64187;51.010;13.792;2024-01-30T03:40:18;101745.81;;;2.61;75.12
75604;BME280;64187;51.010;13.792;2024-01-30T03:45:17;101754.47;;;2.54;75.46
75604;BME280;64187;51.010;13.792;2024-01-30T03:50:18;101742.72;;;2.47;75.46
75604;BME280;64187;51.010;13.792;2024-01-30T03:55:17;101744.06;;;2.69;74.81
75604;BME280;64187;51.010;13.792;2024-01-30T04:00:16;101747.59;;;2.52;75.57
75604;BME280;64187;51.010;13.792;2024-01-30T04:05:15;101747.91;;;2.49;75.91
75604;BME280;64187;51.010;13.792;2024-01-30T04:10:14;101743.25;;;2.33;76.58
75604;BME280;64187;51.010;13.792;2024-01-30T04:15:13;101742.78;;;2.37;76.63
75604;BME280;64187;51.010;13.792;2024-01-30T04:20:14;101743.31;;;2.23;77.00
75604;BME280;64187;51.010;13.792;2024-01-30T04:25:14;101753.34;;;2.21;77.11
75604;BME280;64187;51.010;13.792;2024-01-30T04:30:13;101737.81;;;2.43;76.35
75604;BME280;64187;51.010;13.792;2024-01-30T04:35:12;101748.53;;;2.25;76.96
75604;BME280;64187;51.010;13.792;2024-01-30T04:40:11;101748.06;;;2.29;77.04
75604;BME280;64187;51.010;13.792;2024-01-30T04:45:12;101738.50;;;2.45;76.34
75604;BME280;64187;51.010;13.792;2024-01-30T04:50:10;101729.44;;;2.37;76.82
75604;BME280;64187;51.010;13.792;2024-01-30T04:55:09;101729.13;;;2.23;77.52
75604;BME280;64187;51.010;13.792;2024-01-30T05:00:09;101739.50;;;2.26;77.31
75604;BME280;64187;51.010;13.792;2024-01-30T05:05:08;101740.25;;;2.36;77.25
75604;BME280;64187;51.010;13.792;2024-01-30T05:10:07;101733.00;;;2.28;77.44
75604;BME280;64187;51.010;13.792;2024-01-30T05:15:07;101732.78;;;2.40;77.18
75604;BME280;64187;51.010;13.792;2024-01-30T05:20:07;101729.00;;;2.24;77.60
75604;BME280;64187;51.010;13.792;2024-01-30T05:25:06;101725.38;;;7.20;85.27
75604;BME280;64187;51.010;13.792;2024-01-30T05:30:08;101726.44;;;6.66;68.28
75604;BME280;64187;51.010;13.792;2024-01-30T05:35:08;101719.97;;;6.53;69.02
75604;BME280;64187;51.010;13.792;2024-01-30T05:40:07;101719.69;;;6.85;71.23
75604;BME280;64187;51.010;13.792;2024-01-30T05:45:06;101720.56;;;7.16;68.64
75604;BME280;64187;51.010;13.792;2024-01-30T05:50:07;101722.81;;;5.74;62.07
75604;BME280;64187;51.010;13.792;2024-01-30T05:55:06;101724.75;;;3.95;68.96
75604;BME280;64187;51.010;13.792;2024-01-30T06:00:05;101723.56;;;3.04;73.15
75604;BME280;64187;51.010;13.792;2024-01-30T06:05:04;101728.19;;;2.50;76.19
75604;BME280;64187;51.010;13.792;2024-01-30T06:10:04;101724.22;;;2.54;76.65
75604;BME280;64187;51.010;13.792;2024-01-30T06:15:03;101723.56;;;2.34;77.90
75604;BME280;64187;51.010;13.792;2024-01-30T06:20:03;101724.16;;;2.28;77.70
75604;BME280;64187;51.010;13.792;2024-01-30T06:25:02;101723.78;;;2.23;78.43
75604;BME280;64187;51.010;13.792;2024-01-30T06:30:02;101722.03;;;2.13;78.87
75604;BME280;64187;51.010;13.792;2024-01-30T06:35:01;101724.09;;;2.20;78.72
75604;BME280;64187;51.010;13.792;2024-01-30T06:40:01;101722.25;;;2.02;79.43
75604;BME280;64187;51.010;13.792;2024-01-30T06:45:02;101713.41;;;2.02;79.17
75604;BME280;64187;51.010;13.792;2024-01-30T06:50:01;101709.16;;;2.09;79.24
75604;BME280;64187;51.010;13.792;2024-01-30T06:55:01;101715.78;;;2.05;79.46
75604;BME280;64187;51.010;13.792;2024-01-30T07:00:00;101715.53;;;2.16;78.71
75604;BME280;64187;51.010;13.792;2024-01-30T07:05:03;101723.53;;;1.98;79.47
75604;BME280;64187;51.010;13.792;2024-01-30T07:10:02;101712.47;;;2.11;78.98
75604;BME280;64187;51.010;13.792;2024-01-30T07:15:02;101713.56;;;2.18;78.54
75604;BME280;64187;51.010;13.792;2024-01-30T07:20:02;101720.97;;;2.24;78.07
75604;BME280;64187;51.010;13.792;2024-01-30T07:25:05;101719.06;;;2.34;77.28
75604;BME280;64187;51.010;13.792;2024-01-30T07:30:05;101719.28;;;2.41;77.12
75604;BME280;64187;51.010;13.792;2024-01-30T07:35:04;101727.31;;;2.41;77.48
75604;BME280;64187;51.010;13.792;2024-01-30T07:40:07;101730.78;;;2.59;76.53
75604;BME280;64187;51.010;13.792;2024-01-30T07:45:06;101707.69;;;2.76;75.71
75604;BME280;64187;51.010;13.792;2024-01-30T07:50:06;101713.44;;;2.90;75.44
75604;BME280;64187;51.010;13.792;2024-01-30T07:55:05;101714.91;;;2.84;74.79
75604;BME280;64187;51.010;13.792;2024-01-30T08:00:06;101723.59;;;3.38;73.28
75604;BME280;64187;51.010;13.792;2024-01-30T08:05:06;101724.75;;;3.36;73.10
75604;BME280;64187;51.010;13.792;2024-01-30T08:10:06;101720.81;;;3.56;72.31
75604;BME280;64187;51.010;13.792;2024-01-30T08:15:05;101722.22;;;3.85;71.50
75604;BME280;64187;51.010;13.792;2024-01-30T08:20:05;101719.75;;;4.00;70.72
75604;BME280;64187;51.010;13.792;2024-01-30T08:25:05;101708.53;;;4.04;70.55
75604;BME280;64187;51.010;13.792;2024-01-30T08:30:06;101715.06;;;3.94;69.94
75604;BME280;64187;51.010;13.792;2024-01-30T08:35:05;101708.19;;;3.99;70.23
75604;BME280;64187;51.010;13.792;2024-01-30T08:40:06;101709.91;;;4.41;69.29
75604;BME280;64187;51.010;13.792;2024-01-30T08:45:07;101713.59;;;4.57;67.90
75604;BME280;64187;51.010;13.792;2024-01-30T08:50:08;101701.56;;;4.52;68.13
75604;BME280;64187;51.010;13.792;2024-01-30T08:55:07;101707.41;;;4.48;67.90
75604;BME280;64187;51.010;13.792;2024-01-30T09:00:07;101710.94;;;4.65;67.96
75604;BME280;64187;51.010;13.792;2024-01-30T09:05:08;101712.25;;;4.77;66.43
75604;BME280;64187;51.010;13.792;2024-01-30T09:10:07;101705.53;;;4.81;66.66
75604;BME280;64187;51.010;13.792;2024-01-30T09:15:09;101725.91;;;5.07;65.98
75604;BME280;64187;51.010;13.792;2024-01-30T09:20:09;101737.91;;;5.44;64.60
75604;BME280;64187;51.010;13.792;2024-01-30T09:25:08;101750.19;;;5.38;64.57
75604;BME280;64187;51.010;13.792;2024-01-30T09:30:07;101747.69;;;5.28;64.50
75604;BME280;64187;51.010;13.792;2024-01-30T09:35:07;101753.03;;;5.36;64.51
75604;BME280;64187;51.010;13.792;2024-01-30T09:40:06;101761.69;;;5.07;65.19
75604;BME280;64187;51.010;13.792;2024-01-30T09:45:06;101754.41;;;5.32;64.17
75604;BME280;64187;51.010;13.792;2024-01-30T09:50:06;101739.59;;;5.45;63.92
75604;BME280;64187;51.010;13.792;2024-01-30T09:55:06;101725.22;;;5.29;63.97
75604;BME280;64187;51.010;13.792;2024-01-30T10:00:06;101735.72;;;5.39;63.51
75604;BME280;64187;51.010;13.792;2024-01-30T10:05:15;101733.88;;;5.48;62.61
75604;BME280;64187;51.010;13.792;2024-01-30T10:10:17;101729.44;;;5.63;62.30
75604;BME280;64187;51.010;13.792;2024-01-30T10:15:17;101720.75;;;5.53;62.72
75604;BME280;64187;51.010;13.792;2024-01-30T10:20:16;101709.84;;;5.46;62.61
75604;BME280;64187;51.010;13.792;2024-01-30T10:25:17;101705.75;;;5.67;61.83
75604;BME280;64187;51.010;13.792;2024-01-30T10:30:16;101689.59;;;5.75;61.50
75604;BME280;64187;51.010;13.792;2024-01-30T10:35:15;101693.72;;;5.86;61.23
75604;BME280;64187;51.010;13.792;2024-01-30T10:40:15;101697.69;;;6.21;60.12
75604;BME280;64187;51.010;13.792;2024-01-30T10:45:14;101695.63;;;5.77;61.34
75604;BME280;64187;51.010;13.792;2024-01-30T10:50:18;101689.34;;;5.61;61.91
75604;BME280;64187;51.010;13.792;2024-01-30T10:55:18;101669.66;;;5.61;62.24
75604;BME280;64187;51.010;13.792;2024-01-30T11:00:17;101668.78;;;5.69;61.94
75604;BME280;64187;51.010;13.792;2024-01-30T11:05:24;101659.53;;;5.71;62.29
75604;BME280;64187;51.010;13.792;2024-01-30T11:10:31;101663.09;;;5.64;62.44
75604;BME280;64187;51.010;13.792;2024-01-30T11:15:30;101660.50;;;5.78;61.86
75604;BME280;64187;51.010;13.792;2024-01-30T11:20:31;101665.56;;;6.04;61.40
75604;BME280;64187;51.010;13.792;2024-01-30T11:25:31;101643.25;;;6.04;60.64
75604;BME280;64187;51.010;13.792;2024-01-30T11:30:32;101643.13;;;5.97;61.22
75604;BME280;64187;51.010;13.792;2024-01-30T11:35:35;101647.75;;;6.27;60.09
75604;BME280;64187;51.010;13.792;2024-01-30T11:40:36;101640.59;;;5.96;61.06
75604;BME280;64187;51.010;13.792;2024-01-30T11:45:36;101640.72;;;5.71;61.64
75604;BME280;64187;51.010;13.792;2024-01-30T11:50:37;101619.28;;;5.86;61.27
75604;BME280;64187;51.010;13.792;2024-01-30T11:55:37;101617.66;;;5.54;62.59
75604;BME280;64187;51.010;13.792;2024-01-30T12:00:36;101611.19;;;5.71;61.76
75604;BME280;64187;51.010;13.792;2024-01-30T12:05:35;101626.53;;;5.94;61.69
75604;BME280;64187;51.010;13.792;2024-01-30T12:10:35;101626.53;;;5.86;61.71
75604;BME280;64187;51.010;13.792;2024-01-30T12:15:34;101616.69;;;6.01;60.98
75604;BME280;64187;51.010;13.792;2024-01-30T12:20:33;101611.03;;;5.96;61.59
75604;BME280;64187;51.010;13.792;2024-01-30T12:25:32;101604.59;;;5.74;61.98
75604;BME280;64187;51.010;13.792;2024-01-30T12:30:31;101603.44;;;5.76;62.31
75604;BME280;64187;51.010;13.792;2024-01-30T12:35:30;101606.69;;;5.95;60.88
75604;BME280;64187;51.010;13.792;2024-01-30T12:40:33;101591.59;;;5.86;61.58
75604;BME280;64187;51.010;13.792;2024-01-30T12:45:32;101586.59;;;5.82;60.81
75604;BME280;64187;51.010;13.792;2024-01-30T12:50:31;101574.22;;;5.50;62.05
75604;BME280;64187;51.010;13.792;2024-01-30T12:55:30;101580.69;;;5.64;61.47
75604;BME280;64187;51.010;13.792;2024-01-30T13:00:29;101578.25;;;5.54;60.78
75604;BME280;64187;51.010;13.792;2024-01-30T13:05:28;101586.53;;;5.91;60.35
75604;BME280;64187;51.010;13.792;2024-01-30T13:10:27;101584.38;;;5.63;61.18
75604;BME280;64187;51.010;13.792;2024-01-30T13:15:26;101587.34;;;5.68;61.38
75604;BME280;64187;51.010;13.792;2024-01-30T13:20:25;101582.88;;;5.83;61.33
75604;BME280;64187;51.010;13.792;2024-01-30T13:25:24;101569.06;;;5.72;61.68
75604;BME280;64187;51.010;13.792;2024-01-30T13:30:23;101576.97;;;5.42;62.31
75604;BME280;64187;51.010;13.792;2024-01-30T13:35:22;101582.66;;;5.47;62.60
75604;BME280;64187;51.010;13.792;2024-01-30T13:40:21;101577.66;;;5.36;62.80
75604;BME280;64187;51.010;13.792;2024-01-30T13:45:21;101575.50;;;5.31;62.85
75604;BME280;64187;51.010;13.792;2024-01-30T13:50:21;101571.91;;;5.16;63.53
75604;BME280;64187;51.010;13.792;2024-01-30T13:55:20;101574.94;;;5.13;63.62
75604;BME280;64187;51.010;13.792;2024-01-30T14:00:20;101568.41;;;4.76;64.59
75604;BME280;64187;51.010;13.792;2024-01-30T14:05:21;101565.09;;;4.66;64.91
75604;BME280;64187;51.010;13.792;2024-01-30T14:10:23;101563.53;;;4.71;65.27
75604;BME280;64187;51.010;13.792;2024-01-30T14:15:22;101564.84;;;4.84;65.02
75604;BME280;64187;51.010;13.792;2024-01-30T14:20:27;101563.66;;;4.94;64.82
75604;BME280;64187;51.010;13.792;2024-01-30T14:25:26;101563.44;;;4.57;66.43
75604;BME280;64187;51.010;13.792;2024-01-30T14:30:25;101576.25;;;4.30;66.89
75604;BME280;64187;51.010;13.792;2024-01-30T14:35:24;101564.03;;;4.27;66.82
75604;BME280;64187;51.010;13.792;2024-01-30T14:40:23;101566.34;;;4.14;67.87
75604;BME280;64187;51.010;13.792;2024-01-30T14:45:22;101567.22;;;3.98;67.95
75604;BME280;64187;51.010;13.792;2024-01-30T14:50:21;101572.75;;;3.97;68.58
75604;BME280;64187;51.010;13.792;2024-01-30T14:55:20;101575.44;;;3.88;68.68
75604;BME280;64187;51.010;13.792;2024-01-30T15:00:19;101570.75;;;3.91;68.48
75604;BME280;64187;51.010;13.792;2024-01-30T15:05:17;101575.72;;;3.53;70.23
75604;BME280;64187;51.010;13.792;2024-01-30T15:10:16;101562.84;;;3.64;69.79
75604;BME280;64187;51.010;13.792;2024-01-30T15:15:16;101582.63;;;3.63;69.36
75604;BME280;64187;51.010;13.792;2024-01-30T15:20:14;101582.91;;;3.52;69.63
75604;BME280;64187;51.010;13.792;2024-01-30T15:25:15;101570.00;;;3.39;70.45
75604;BME280;64187;51.010;13.792;2024-01-30T15:30:14;101570.16;;;3.30;70.69
75604;BME280;64187;51.010;13.792;2024-01-30T15:35:13;101567.38;;;2.89;71.96
75604;BME280;64187;51.010;13.792;2024-01-30T15:40:12;101583.31;;;3.07;71.76
75604;BME280;64187;51.010;13.792;2024-01-30T15:45:11;101585.84;;;2.74;72.85
75604;BME280;64187;51.010;13.792;2024-01-30T15:50:11;101589.81;;;2.96;72.12
75604;BME280;64187;51.010;13.792;2024-01-30T15:55:10;101581.34;;;2.74;72.88
75604;BME280;64187;51.010;13.792;2024-01-30T16:00:11;101585.31;;;3.88;84.68
75604;BME280;64187;51.010;13.792;2024-01-30T16:05:11;101583.81;;;5.91;73.46
75604;BME280;64187;51.010;13.792;2024-01-30T16:10:11;101598.25;;;4.73;65.27
75604;BME280;64187;51.010;13.792;2024-01-30T16:15:15;101610.03;;;3.57;69.30
75604;BME280;64187;51.010;13.792;2024-01-30T16:20:14;101608.97;;;3.26;71.12
75604;BME280;64187;51.010;13.792;2024-01-30T16:25:14;101611.78;;;3.16;71.84
75604;BME280;64187;51.010;13.792;2024-01-30T16:30:16;101609.53;;;3.03;72.32
75604;BME280;64187;51.010;13.792;2024-01-30T16:35:16;101604.94;;;2.53;74.18
75604;BME280;64187;51.010;13.792;2024-01-30T16:40:15;101606.25;;;2.49;74.94
75604;BME280;64187;51.010;13.792;2024-01-30T16:45:14;101611.66;;;2.57;74.70
75604;BME280;64187;51.010;13.792;2024-01-30T16:50:13;101615.94;;;2.50;74.91
75604;BME280;64187;51.010;13.792;2024-01-30T16:55:12;101619.28;;;2.26;75.76
75604;BME280;64187;51.010;13.792;2024-01-30T17:00:12;101627.47;;;2.50;75.47
75604;BME280;64187;51.010;13.792;2024-01-30T17:05:11;101615.38;;;2.64;74.60
75604;BME280;64187;51.010;13.792;2024-01-30T17:10:24;101608.09;;;2.83;73.57
75604;BME280;64187;51.010;13.792;2024-01-30T17:15:23;101616.44;;;2.79;74.17
75604;BME280;64187;51.010;13.792;2024-01-30T17:20:22;101626.16;;;2.54;75.22
75604;BME280;64187;51.010;13.792;2024-01-30T17:25:22;101632.53;;;2.88;74.12
75604;BME280;64187;51.010;13.792;2024-01-30T17:30:21;101626.59;;;3.02;73.30
75604;BME280;64187;51.010;13.792;2024-01-30T17:35:20;101623.34;;;2.90;73.50
75604;BME280;64187;51.010;13.792;2024-01-30T17:40:19;101613.94;;;2.78;74.42
75604;BME280;64187;51.010;13.792;2024-01-30T17:45:18;101629.25;;;2.68;74.49
75604;BME280;64187;51.010;13.792;2024-01-30T17:50:19;101612.69;;;2.64;74.81
75604;BME280;64187;51.010;13.792;2024-01-30T17:55:18;101616.34;;;2.89;73.93
75604;BME280;64187;51.010;13.792;2024-01-30T18:00:17;101630.94;;;3.03;73.40
75604;BME280;64187;51.010;13.792;2024-01-30T18:05:17;101633.59;;;3.03;73.56
75604;BME280;64187;51.010;13.792;2024-01-30T18:10:16;101638.09;;;2.94;73.47
75604;BME280;64187;51.010;13.792;2024-01-30T18:15:18;101634.91;;;2.91;74.17
75604;BME280;64187;51.010;13.792;2024-01-30T18:20:17;101638.91;;;2.95;74.31
75604;BME280;64187;51.010;13.792;2024-01-30T18:25:16;101637.94;;;2.96;73.73
75604;BME280;64187;51.010;13.792;2024-01-30T18:30:15;101645.66;;;2.73;75.30
75604;BME280;64187;51.010;13.792;2024-01-30T18:35:15;101643.44;;;2.68;75.16
75604;BME280;64187;51.010;13.792;2024-01-30T18:40:14;101646.34;;;2.49;75.59
75604;BME280;64187;51.010;13.792;2024-01-30T18:45:17;101652.25;;;2.61;75.45
75604;BME280;64187;51.010;13.792;2024-01-30T18:50:19;101640.00;;;2.76;74.47
75604;BME280;64187;51.010;13.792;2024-01-30T18:55:18;101641.94;;;2.66;75.00
75604;BME280;64187;51.010;13.792;2024-01-30T19:00:17;101647.59;;;2.63;75.80
75604;BME280;64187;51.010;13.792;2024-01-30T19:05:17;101649.03;;;2.49;75.97
75604;BME280;64187;51.010;13.792;2024-01-30T19:10:17;101643.88;;;2.55;75.78
75604;BME280;64187;51.010;13.792;2024-01-30T19:15:32;101648.75;;;2.60;75.46
75604;BME280;64187;51.010;13.792;2024-01-30T19:20:31;101646.28;;;2.41;76.64
75604;BME280;64187;51.010;13.792;2024-01-30T19:25:31;101655.91;;;2.51;76.09
75604;BME280;64187;51.010;13.792;2024-01-30T19:30:32;101658.97;;;2.39;77.33
75604;BME280;64187;51.010;13.792;2024-01-30T19:35:31;101667.81;;;2.65;76.34
75604;BME280;64187;51.010;13.792;2024-01-30T19:40:30;101671.19;;;7.96;83.53
75604;BME280;64187;51.010;13.792;2024-01-30T19:45:29;101675.44;;;7.69;69.28
75604;BME280;64187;51.010;13.792;2024-01-30T19:50:28;101667.19;;;8.84;66.43
75604;BME280;64187;51.010;13.792;2024-01-30T19:55:27;101676.19;;;9.95;60.77
75604;BME280;64187;51.010;13.792;2024-01-30T20:00:26;101681.22;;;6.24;59.12
75604;BME280;64187;51.010;13.792;2024-01-30T20:05:25;101677.75;;;4.25;67.46
75604;BME280;64187;51.010;13.792;2024-01-30T20:10:25;101687.03;;;3.55;70.99
75604;BME280;64187;51.010;13.792;2024-01-30T20:15:24;101689.63;;;3.05;73.11
75604;BME280;64187;51.010;13.792;2024-01-30T20:20:24;101689.59;;;2.96;73.83
75604;BME280;64187;51.010;13.792;2024-01-30T20:25:23;101707.47;;;2.96;74.42
75604;BME280;64187;51.010;13.792;2024-01-30T20:30:22;101701.38;;;2.86;74.72
75604;BME280;64187;51.010;13.792;2024-01-30T20:35:21;101695.41;;;2.66;75.74
75604;BME280;64187;51.010;13.792;2024-01-30T20:40:20;101708.19;;;2.54;76.49
75604;BME280;64187;51.010;13.792;2024-01-30T20:45:19;101702.31;;;3.02;75.01
75604;BME280;64187;51.010;13.792;2024-01-30T20:50:18;101706.63;;;2.95;74.86
75604;BME280;64187;51.010;13.792;2024-01-30T20:55:17;101711.13;;;2.95;74.94
75604;BME280;64187;51.010;13.792;2024-01-30T21:00:17;101708.47;;;2.69;75.83
75604;BME280;64187;51.010;13.792;2024-01-30T21:05:16;101721.66;;;2.44;77.41
75604;BME280;64187;51.010;13.792;2024-01-30T21:10:21;101702.16;;;2.78;75.80
75604;BME280;64187;51.010;13.792;2024-01-30T21:15:20;101699.03;;;2.83;75.47
75604;BME280;64187;51.010;13.792;2024-01-30T21:20:18;101712.25;;;2.84;75.07
75604;BME280;64187;51.010;13.792;2024-01-30T21:25:18;101715.47;;;2.70;76.17
75604;BME280;64187;51.010;13.792;2024-01-30T21:30:17;101718.25;;;2.60;76.14
75604;BME280;64187;51.010;13.792;2024-01-30T21:35:15;101713.88;;;2.77;75.51
75604;BME280;64187;51.010;13.792;2024-01-30T21:40:14;101719.56;;;2.38;77.04
75604;BME280;64187;51.010;13.792;2024-01-30T21:45:16;101709.31;;;2.69;76.09
75604;BME280;64187;51.010;13.792;2024-01-30T21:50:18;101721.97;;;2.41;77.50
75604;BME280;64187;51.010;13.792;2024-01-30T21:55:18;101727.84;;;2.27;77.91
75604;BME280;64187;51.010;13.792;2024-01-30T22:00:17;101729.59;;;2.18;78.61
75604;BME280;64187;51.010;13.792;2024-01-30T22:05:18;101726.91;;;2.18;78.46
75604;BME280;64187;51.010;13.792;2024-01-30T22:10:17;101735.09;;;2.34;78.00
75604;BME280;64187;51.010;13.792;2024-01-30T22:15:16;101738.44;;;2.01;79.69
75604;BME280;64187;51.010;13.792;2024-01-30T22:20:17;101737.69;;;2.26;78.36
75604;BME280;64187;51.010;13.792;2024-01-30T22:25:16;101731.16;;;1.93;79.80
75604;BME280;64187;51.010;13.792;2024-01-30T22:30:15;101738.22;;;1.94;79.87
75604;BME280;64187;51.010;13.792;2024-01-30T22:35:14;101743.19;;;2.07;79.70
75604;BME280;64187;51.010;13.792;2024-01-30T22:40:13;101746.53;;;2.09;79.64
75604;BME280;64187;51.010;13.792;2024-01-30T22:45:12;101752.72;;;2.09;79.44
75604;BME280;64187;51.010;13.792;2024-01-30T22:50:11;101751.78;;;2.19;78.90
75604;BME280;64187;51.010;13.792;2024-01-30T22:55:09;101749.59;;;2.14;79.29
75604;BME280;64187;51.010;13.792;2024-01-30T23:00:09;101748.59;;;1.97;80.07
75604;BME280;64187;51.010;13.792;2024-01-30T23:05:14;101748.22;;;2.10;79.75
75604;BME280;64187;51.010;13.792;2024-01-30T23:10:13;101746.06;;;1.96;80.21
75604;BME280;64187;51.010;13.792;2024-01-30T23:15:12;101751.44;;;1.86;81.26
75604;BME280;64187;51.010;13.792;2024-01-30T23:20:11;101746.00;;;2.23;79.53
75604;BME280;64187;51.010;13.792;2024-01-30T23:25:11;101739.88;;;2.13;79.85
75604;BME280;64187;51.010;13.792;2024-01-30T23:30:10;101756.59;;;2.15;79.99
75604;BME280;64187;51.010;13.792;2024-01-30T23:35:09;101750.88;;;2.46;78.89
75604;BME280;64187;51.010;13.792;2024-01-30T23:40:11;101753.34;;;2.21;79.21
75604;BME280;64187;51.010;13.792;2024-01-30T23:45:10;101753.63;;;2.36;79.35
75604;BME280;64187;51.010;13.792;2024-01-30T23:50:10;101744.31;;;2.40;79.11
75604;BME280;64187;51.010;13.792;2024-01-30T23:55:09;101747.31;;;2.37;79.41
